createdAt,value
2022-11-30T00:03:53.073Z,93806.44
2022-11-30T00:09:01.107Z,93803.39
2022-11-30T00:14:08.100Z,93801.17
2022-11-30T00:19:15.605Z,93800.25
2022-11-30T00:24:22.760Z,93791.52
2022-11-30T00:29:29.926Z,93800.25
2022-11-30T00:34:37.044Z,93800.62
2022-11-30T00:39:44.120Z,93801.80
2022-11-30T00:44:50.963Z,93800.32
2022-11-30T00:49:57.862Z,93795.69
2022-11-30T00:55:05.615Z,93799.21
2022-11-30T01:00:13.299Z,93802.14
2022-11-30T01:05:20.698Z,93799.66
2022-11-30T01:10:28.171Z,93805.20
2022-11-30T01:15:40.907Z,93805.95
2022-11-30T01:20:47.811Z,93808.84
2022-11-30T01:25:58.582Z,93799.94
2022-11-30T01:31:09.648Z,93803.40
2022-11-30T01:36:21.017Z,93794.53
2022-11-30T01:41:32.369Z,93790.45
2022-11-30T01:46:59.153Z,93817.81
2022-11-30T01:52:25.227Z,93797.59
2022-11-30T01:57:36.568Z,93801.88
2022-11-30T02:03:05.838Z,93812.67
2022-11-30T02:08:14.510Z,93808.16
2022-11-30T02:13:55.713Z,93806.94
2022-11-30T02:19:44.610Z,93814.87
2022-11-30T02:25:13.775Z,93822.53
2022-11-30T02:30:23.370Z,93817.73
2022-11-30T02:35:33.883Z,93822.46
2022-11-30T02:40:40.706Z,93821.94
2022-11-30T02:46:21.873Z,93824.22
2022-11-30T02:51:30.753Z,93821.40
2022-11-30T02:56:37.438Z,93820.77
2022-11-30T03:01:45.898Z,93814.22
2022-11-30T03:06:52.613Z,93813.44
2022-11-30T03:11:59.301Z,93823.30
2022-11-30T03:17:07.314Z,93822.75
2022-11-30T03:22:14.019Z,93826.24
2022-11-30T03:27:20.739Z,93823.38
2022-11-30T03:32:27.410Z,93815.49
2022-11-30T03:37:34.112Z,93808.55
2022-11-30T03:42:40.817Z,93818.61
2022-11-30T03:47:47.566Z,93817.55
2022-11-30T03:52:54.246Z,93818.73
2022-11-30T03:58:00.987Z,93815.41
2022-11-30T04:03:08.037Z,93810.22
2022-11-30T04:08:14.733Z,93809.03
2022-11-30T04:13:22.462Z,93814.94
2022-11-30T04:18:31.531Z,93811.70
2022-11-30T04:23:41.405Z,93804.71
2022-11-30T04:28:48.115Z,93807.55
2022-11-30T04:33:57.576Z,93813.48
2022-11-30T04:39:04.250Z,93815.92
2022-11-30T04:44:11.085Z,93813.86
2022-11-30T04:49:17.804Z,93823.25
2022-11-30T04:54:24.568Z,93827.20
2022-11-30T04:59:31.256Z,93820.13
2022-11-30T05:04:38.197Z,93824.02
2022-11-30T05:09:44.968Z,93826.90
2022-11-30T05:14:51.720Z,93824.38
2022-11-30T05:19:58.446Z,93827.55
2022-11-30T05:25:06.257Z,93650.56
2022-11-30T05:30:13.890Z,93823.55
2022-11-30T05:35:20.592Z,93836.27
2022-11-30T05:40:29.012Z,93837.20
2022-11-30T05:45:35.795Z,93846.02
2022-11-30T05:50:43.011Z,93854.73
2022-11-30T05:55:49.722Z,93853.36
2022-11-30T06:00:56.531Z,93854.88
2022-11-30T06:06:04.701Z,93854.73
2022-11-30T06:11:11.605Z,93855.67
2022-11-30T06:16:18.742Z,93859.09
2022-11-30T06:21:25.488Z,93861.73
2022-11-30T06:26:32.700Z,93870.29
2022-11-30T06:31:39.726Z,93865.11
2022-11-30T06:36:46.878Z,93866.79
2022-11-30T06:41:54.700Z,93882.90
2022-11-30T06:47:01.706Z,93878.30
2022-11-30T06:52:09.194Z,93881.75
2022-11-30T06:57:16.431Z,93888.61
2022-11-30T07:02:24.476Z,93880.92
2022-11-30T07:07:31.818Z,93882.98
2022-11-30T07:12:38.520Z,93890.20
2022-11-30T07:17:45.228Z,93896.60
2022-11-30T07:22:51.953Z,93900.78
2022-11-30T07:27:58.646Z,93906.38
2022-11-30T07:33:05.418Z,93919.11
2022-11-30T07:38:12.173Z,93915.22
2022-11-30T07:43:18.930Z,93912.81
2022-11-30T07:48:25.623Z,93909.80
2022-11-30T07:53:32.361Z,93911.21
2022-11-30T07:58:39.750Z,93918.80
2022-11-30T08:03:46.787Z,93914.27
2022-11-30T08:08:55.386Z,93929.55
2022-11-30T08:14:03.351Z,93923.84
2022-11-30T08:19:10.113Z,93928.24
2022-11-30T08:24:17.040Z,93921.52
2022-11-30T08:29:23.742Z,93926.52
2022-11-30T08:34:30.490Z,93931.20
2022-11-30T08:39:37.241Z,93935.95
2022-11-30T08:44:43.962Z,93930.74
2022-11-30T08:49:50.643Z,93931.67
2022-11-30T08:54:57.365Z,93925.08
2022-11-30T09:00:04.998Z,93929.95
2022-11-30T09:05:11.965Z,93927.35
2022-11-30T09:10:19.071Z,93926.16
2022-11-30T09:15:25.853Z,93927.64
2022-11-30T09:20:32.686Z,93930.51
2022-11-30T09:25:39.380Z,93927.80
2022-11-30T09:30:46.148Z,93926.75
2022-11-30T09:36:00.769Z,93923.38
2022-11-30T09:41:17.830Z,93915.20
2022-11-30T09:46:29.152Z,93916.44
2022-11-30T09:51:52.372Z,93908.87
2022-11-30T09:56:59.190Z,93913.30
2022-11-30T10:02:15.689Z,93905.63
2022-11-30T10:07:41.933Z,93896.86
2022-11-30T10:13:15.540Z,93897.48
2022-11-30T10:18:29.455Z,93900.05
2022-11-30T10:23:55.596Z,93887.23
2022-11-30T10:29:09.441Z,93887.58
2022-11-30T10:34:17.991Z,93891.67
2022-11-30T10:39:40.193Z,93889.39
2022-11-30T10:44:51.756Z,93890.03
2022-11-30T10:49:58.439Z,93890.38
2022-11-30T10:55:06.730Z,93893.59
2022-11-30T11:00:18.581Z,93887.05
2022-11-30T11:05:31.510Z,93881.68
2022-11-30T11:10:51.940Z,93875.08
2022-11-30T11:16:01.809Z,93876.06
2022-11-30T11:21:13.033Z,93874.47
2022-11-30T11:26:25.957Z,93871.86
2022-11-30T11:31:49.859Z,93874.83
2022-11-30T11:37:15.922Z,93872.27
2022-11-30T11:42:24.314Z,93866.37
2022-11-30T11:47:41.029Z,93866.02
2022-11-30T11:52:47.789Z,93870.41
2022-11-30T11:58:01.060Z,93864.23
2022-11-30T12:03:45.344Z,93867.11
2022-11-30T12:09:05.210Z,93859.72
2022-11-30T12:14:15.651Z,93867.63
2022-11-30T12:19:35.928Z,93858.27
2022-11-30T12:25:07.943Z,93858.34
2022-11-30T12:30:44.614Z,93855.26
2022-11-30T12:36:14.633Z,93675.23
2022-11-30T12:41:34.886Z,93858.32
2022-11-30T12:46:48.847Z,93859.31
2022-11-30T12:52:06.042Z,93848.02
2022-11-30T12:57:31.756Z,93845.33
2022-11-30T13:03:14.169Z,93837.63
2022-11-30T13:08:37.314Z,93843.60
2022-11-30T13:13:48.505Z,93843.21
2022-11-30T13:18:59.708Z,93834.72
2022-11-30T13:24:32.334Z,93842.64
2022-11-30T13:29:58.552Z,93841.77
2022-11-30T13:35:34.892Z,93838.64
2022-11-30T13:40:41.663Z,93834.95
2022-11-30T13:45:48.989Z,93835.31
2022-11-30T13:50:56.737Z,93835.84
2022-11-30T13:56:10.893Z,93838.86
2022-11-30T14:06:56.972Z,93837.79
2022-11-30T14:12:37.828Z,93838.96
2022-11-30T14:17:44.973Z,93834.80
2022-11-30T14:22:54.748Z,93840.45
2022-11-30T14:28:04.710Z,93835.83
2022-11-30T14:33:19.989Z,93842.81
2022-11-30T14:38:31.778Z,93842.95
2022-11-30T14:43:38.926Z,93554.42
2022-11-30T14:48:45.988Z,93839.71
2022-11-30T14:54:12.817Z,93840.53
2022-11-30T14:59:51.080Z,93836.23
2022-11-30T15:04:59.212Z,93838.34
2022-11-30T15:10:13.078Z,93838.95
2022-11-30T15:15:21.335Z,93837.61
2022-11-30T15:20:32.597Z,93832.98
2022-11-30T15:25:52.206Z,93839.88
2022-11-30T15:31:02.741Z,93838.64
2022-11-30T15:36:27.962Z,93837.02
2022-11-30T15:41:22.895Z,93836.14
2022-11-30T15:46:46.364Z,93834.36
2022-11-30T15:51:57.502Z,93838.14
2022-11-30T15:57:07.487Z,93837.56
2022-11-30T16:02:34.875Z,93848.39
2022-11-30T16:08:03.991Z,93834.44
2022-11-30T16:13:16.418Z,93838.52
2022-11-30T16:18:27.035Z,93846.72
2022-11-30T16:23:38.197Z,93846.12
2022-11-30T16:28:44.951Z,93843.51
2022-11-30T16:33:52.667Z,93845.22
2022-11-30T16:39:00.222Z,93851.30
2022-11-30T16:44:12.271Z,93846.72
2022-11-30T16:49:20.655Z,93850.55
2022-11-30T16:54:27.415Z,93859.15
2022-11-30T16:59:34.489Z,93874.05
2022-11-30T17:04:42.499Z,93859.06
2022-11-30T17:09:49.119Z,93851.64
2022-11-30T17:14:56.268Z,93855.66
2022-11-30T17:20:04.318Z,93866.92
2022-11-30T17:25:15.894Z,93874.23
2022-11-30T17:30:24.819Z,93872.56
2022-11-30T17:35:31.649Z,93873.33
2022-11-30T17:40:44.243Z,93877.08
2022-11-30T17:45:51.211Z,93876.27
2022-11-30T17:50:58.490Z,93875.48
2022-11-30T17:56:08.505Z,93880.53
2022-11-30T18:01:22.444Z,93880.48
2022-11-30T18:06:30.148Z,93896.98
2022-11-30T18:11:37.390Z,93902.34
2022-11-30T18:16:44.459Z,93901.62
2022-11-30T18:21:51.763Z,93909.91
2022-11-30T18:26:59.248Z,93915.02
2022-11-30T18:32:06.637Z,93909.58
2022-11-30T18:37:14.111Z,93911.78
2022-11-30T18:42:21.555Z,93911.86
2022-11-30T18:47:28.591Z,93915.95
2022-11-30T18:52:36.042Z,93912.45
2022-11-30T18:57:43.380Z,93915.45
2022-11-30T19:02:51.954Z,93912.25
2022-11-30T19:08:00.097Z,93918.02
2022-11-30T19:13:08.273Z,93920.45
2022-11-30T19:18:17.264Z,93919.41
2022-11-30T19:23:24.550Z,93922.47
2022-11-30T19:28:32.775Z,93919.77
2022-11-30T19:33:42.097Z,93923.59
2022-11-30T19:38:51.935Z,93919.32
2022-11-30T19:44:04.838Z,93912.16
2022-11-30T19:49:13.081Z,93919.58
2022-11-30T19:54:19.852Z,93926.50
2022-11-30T19:59:26.847Z,93929.78
2022-11-30T20:04:33.677Z,93931.44
2022-11-30T20:09:40.657Z,93930.04
2022-11-30T20:14:49.272Z,93925.40
2022-11-30T20:19:56.664Z,93930.84
2022-11-30T20:25:04.138Z,93928.86
2022-11-30T20:30:13.377Z,93922.91
2022-11-30T20:35:20.835Z,93917.27
2022-11-30T20:40:27.899Z,93917.44
2022-11-30T20:45:35.295Z,93916.09
2022-11-30T20:50:51.345Z,93925.36
2022-11-30T20:55:52.249Z,93928.99
2022-11-30T21:01:01.542Z,93925.40
2022-11-30T21:06:08.815Z,93931.67
2022-11-30T21:11:18.754Z,93929.91
2022-11-30T21:16:30.160Z,93927.30
2022-11-30T21:21:38.580Z,93928.11
2022-11-30T21:26:45.837Z,93926.20
2022-11-30T21:31:53.097Z,93924.69
2022-11-30T21:37:00.340Z,93922.48
2022-11-30T21:42:07.360Z,93918.91
2022-11-30T21:47:15.360Z,93900.10
2022-11-30T21:52:22.305Z,93922.66
2022-11-30T21:57:29.535Z,93922.92
2022-11-30T22:02:37.824Z,93920.72
2022-11-30T22:07:45.004Z,93922.96
2022-11-30T22:12:52.010Z,93922.12
2022-11-30T22:17:59.370Z,93914.57
2022-11-30T22:23:07.092Z,93913.84
2022-11-30T22:28:14.345Z,93910.13
2022-11-30T22:33:22.256Z,93905.20
2022-11-30T22:38:30.561Z,93906.09
2022-11-30T22:43:38.174Z,93900.47
2022-11-30T22:48:46.148Z,93905.83
2022-11-30T22:53:54.894Z,93904.39
2022-11-30T22:59:03.167Z,93902.87
2022-11-30T23:04:20.236Z,93904.19
2022-11-30T23:09:27.392Z,93905.88
2022-11-30T23:14:34.892Z,93901.99
2022-11-30T23:19:42.412Z,93902.12
2022-11-30T23:24:50.398Z,93902.16
2022-11-30T23:29:57.228Z,93900.56
2022-11-30T23:35:05.383Z,93896.84
2022-11-30T23:40:13.122Z,93888.36
2022-11-30T23:45:20.284Z,93890.52
2022-11-30T23:50:27.322Z,93892.45
2022-11-30T23:55:35.937Z,93882.72
